createdAt,value
2018-09-23T00:02:24.602Z,98269.77
2018-09-23T00:04:53.329Z,98277.30
2018-09-23T00:07:22.098Z,98274.23
2018-09-23T00:09:50.926Z,98280.21
2018-09-23T00:12:19.630Z,98275.83
2018-09-23T00:14:48.468Z,98278.47
2018-09-23T00:17:17.189Z,98274.08
2018-09-23T00:19:45.842Z,98273.64
2018-09-23T00:22:14.674Z,98271.16
2018-09-23T00:24:43.660Z,98261.63
2018-09-23T00:27:13.078Z,98260.20
2018-09-23T00:29:47.016Z,98257.24
2018-09-23T00:32:15.785Z,98260.44
2018-09-23T00:34:44.876Z,98252.19
2018-09-23T00:37:13.520Z,98243.86
2018-09-23T00:39:42.298Z,98230.73
2018-09-23T00:42:11.135Z,98231.22
2018-09-23T00:44:39.778Z,98241.70
2018-09-23T00:47:08.833Z,98239.11
2018-09-23T00:49:37.722Z,98238.51
2018-09-23T00:52:06.566Z,98245.53
2018-09-23T00:54:35.315Z,98248.87
2018-09-23T00:57:03.981Z,98243.56
2018-09-23T00:59:32.857Z,98231.56
2018-09-23T01:02:01.507Z,98221.52
2018-09-23T01:04:30.190Z,98221.09
2018-09-23T01:07:00.422Z,98209.69
2018-09-23T01:09:29.226Z,98208.17
2018-09-23T01:11:57.930Z,98215.73
2018-09-23T01:14:26.631Z,98222.03
2018-09-23T01:16:55.399Z,98217.89
2018-09-23T01:19:24.118Z,98216.11
2018-09-23T01:21:52.746Z,98210.48
2018-09-23T01:24:21.437Z,98218.50
2018-09-23T01:26:50.122Z,98220.17
2018-09-23T01:29:18.752Z,98219.30
2018-09-23T01:31:47.643Z,98211.31
2018-09-23T01:34:23.709Z,98216.59
2018-09-23T01:36:52.830Z,98218.93
2018-09-23T01:39:21.812Z,98208.72
2018-09-23T01:41:50.817Z,98204.91
2018-09-23T01:44:19.855Z,98206.25
2018-09-23T01:46:48.848Z,98199.00
2018-09-23T01:49:17.924Z,98190.98
2018-09-23T01:51:46.974Z,98184.09
2018-09-23T01:54:16.465Z,98182.57
2018-09-23T01:56:45.468Z,98175.12
2018-09-23T01:59:14.535Z,98169.84
2018-09-23T02:01:43.561Z,98171.92
2018-09-23T02:04:12.538Z,98165.52
2018-09-23T02:06:41.638Z,98170.26
2018-09-23T02:09:10.820Z,98165.40
2018-09-23T02:11:39.827Z,98163.31
2018-09-23T02:14:09.137Z,98165.78
2018-09-23T02:16:38.343Z,98147.23
2018-09-23T02:19:07.782Z,98138.43
2018-09-23T02:21:36.923Z,98148.78
2018-09-23T02:24:05.910Z,98156.42
2018-09-23T02:26:34.986Z,98150.51
2018-09-23T02:29:03.971Z,98137.95
2018-09-23T02:31:33.090Z,98131.74
2018-09-23T02:34:02.114Z,98125.42
2018-09-23T02:36:31.018Z,98133.04
2018-09-23T02:38:59.798Z,98122.83
2018-09-23T02:41:28.773Z,98121.16
2018-09-23T02:43:57.882Z,98113.84
2018-09-23T02:46:26.630Z,98100.18
2018-09-23T02:48:55.365Z,98116.98
2018-09-23T02:51:24.262Z,98110.64
2018-09-23T02:53:52.907Z,98096.63
2018-09-23T02:56:21.693Z,98094.95
2018-09-23T02:58:50.402Z,98095.13
2018-09-23T03:01:19.048Z,98093.59
2018-09-23T03:03:47.902Z,98097.09
2018-09-23T03:06:16.825Z,98103.23
2018-09-23T03:08:45.639Z,98100.89
2018-09-23T03:11:14.297Z,98099.30
2018-09-23T03:13:42.954Z,98093.75
2018-09-23T03:16:11.837Z,98082.08
2018-09-23T03:18:40.810Z,98081.21
2018-09-23T03:21:09.595Z,98067.81
2018-09-23T03:23:38.270Z,98058.20
2018-09-23T03:26:06.905Z,98054.41
2018-09-23T03:28:35.774Z,98057.37
2018-09-23T03:31:04.421Z,98051.03
2018-09-23T03:33:33.041Z,98052.30
2018-09-23T03:36:01.739Z,98050.97
2018-09-23T03:38:30.580Z,98038.04
2018-09-23T03:40:59.427Z,98023.55
2018-09-23T03:43:28.233Z,98018.38
2018-09-23T03:45:56.899Z,98012.27
2018-09-23T03:48:25.649Z,98019.49
2018-09-23T03:50:54.816Z,98018.38
2018-09-23T03:53:23.652Z,98015.84
2018-09-23T03:55:52.342Z,98011.68
2018-09-23T03:58:21.025Z,98004.29
2018-09-23T04:00:49.697Z,97998.95
2018-09-23T04:03:18.391Z,97989.37
2018-09-23T04:05:47.307Z,97991.44
2018-09-23T04:08:16.149Z,97991.25
2018-09-23T04:10:44.927Z,97989.83
2018-09-23T04:13:13.654Z,97990.16
2018-09-23T04:15:42.302Z,97984.33
2018-09-23T04:18:11.105Z,97974.61
2018-09-23T04:20:39.724Z,97964.23
2018-09-23T04:23:08.726Z,97968.52
2018-09-23T04:25:37.485Z,97968.20
2018-09-23T04:28:06.573Z,97972.06
2018-09-23T04:30:35.401Z,97971.91
2018-09-23T04:33:04.174Z,97962.20
2018-09-23T04:35:32.910Z,97957.89
2018-09-23T04:38:01.581Z,97957.89
2018-09-23T04:40:30.234Z,97953.11
2018-09-23T04:42:59.066Z,97960.36
2018-09-23T04:45:27.690Z,97954.59
2018-09-23T04:47:56.370Z,97951.20
2018-09-23T04:50:25.046Z,97944.56
2018-09-23T04:52:53.762Z,97935.84
2018-09-23T04:55:22.488Z,97932.07
2018-09-23T04:57:51.120Z,97928.34
2018-09-23T05:00:19.913Z,97925.31
2018-09-23T05:02:48.773Z,97922.22
2018-09-23T05:05:17.423Z,97915.46
2018-09-23T05:07:46.581Z,97913.02
2018-09-23T05:10:15.758Z,97911.80
2018-09-23T05:12:44.491Z,97901.38
2018-09-23T05:15:13.165Z,97893.98
2018-09-23T05:17:41.919Z,97900.49
2018-09-23T05:20:10.778Z,97896.28
2018-09-23T05:22:39.417Z,97892.81
2018-09-23T05:25:08.123Z,97888.09
2018-09-23T05:27:36.913Z,97882.80
2018-09-23T05:30:05.907Z,97889.08
2018-09-23T05:32:34.696Z,97882.64
2018-09-23T05:35:03.359Z,97878.86
2018-09-23T05:37:32.113Z,97886.25
2018-09-23T05:40:00.952Z,97876.75
2018-09-23T05:42:29.887Z,97876.80
2018-09-23T05:44:58.879Z,97877.91
2018-09-23T05:47:27.506Z,97870.47
2018-09-23T05:49:56.229Z,97864.15
2018-09-23T05:52:24.908Z,97864.70
2018-09-23T05:54:53.786Z,97853.30
2018-09-23T05:57:22.499Z,97850.81
2018-09-23T05:59:51.162Z,97855.52
2018-09-23T06:02:19.942Z,97856.47
2018-09-23T06:04:48.678Z,97844.66
2018-09-23T06:07:17.491Z,97849.42
2018-09-23T06:09:46.271Z,97843.00
2018-09-23T06:12:15.016Z,97836.32
2018-09-23T06:14:43.710Z,97835.47
2018-09-23T06:17:12.517Z,97832.23
2018-09-23T06:19:41.146Z,97829.69
2018-09-23T06:22:10.040Z,97826.10
2018-09-23T06:24:38.757Z,97823.50
2018-09-23T06:27:07.421Z,97812.27
2018-09-23T06:29:36.153Z,97817.50
2018-09-23T06:32:05.059Z,97818.24
2018-09-23T06:34:34.063Z,97814.89
2018-09-23T06:37:02.783Z,97818.48
2018-09-23T06:39:31.498Z,97812.42
2018-09-23T06:42:00.199Z,97806.69
2018-09-23T06:44:30.707Z,97794.67
2018-09-23T06:47:00.453Z,97793.30
2018-09-23T06:49:29.739Z,97792.69
2018-09-23T06:51:58.381Z,97787.64
2018-09-23T06:54:27.526Z,97782.78
2018-09-23T06:56:56.225Z,97789.11
2018-09-23T06:59:25.201Z,97791.16
2018-09-23T07:01:53.841Z,97784.16
2018-09-23T07:04:22.777Z,97775.06
2018-09-23T07:06:51.579Z,97767.25
2018-09-23T07:09:20.962Z,97773.41
2018-09-23T07:11:49.737Z,97772.48
2018-09-23T07:14:18.438Z,97776.94
2018-09-23T07:16:47.078Z,97766.38
2018-09-23T07:19:15.809Z,97760.74
2018-09-23T07:21:44.457Z,97764.64
2018-09-23T07:24:14.065Z,97765.44
2018-09-23T07:26:42.888Z,97763.30
2018-09-23T07:29:11.533Z,97754.11
2018-09-23T07:31:40.285Z,97765.05
2018-09-23T07:34:08.974Z,97760.69
2018-09-23T07:36:37.780Z,97756.52
2018-09-23T07:39:08.157Z,97751.55
2018-09-23T07:41:36.797Z,97752.74
2018-09-23T07:44:05.872Z,97741.72
2018-09-23T07:46:34.755Z,97740.75
2018-09-23T07:49:03.426Z,97735.61
2018-09-23T07:51:32.754Z,97736.02
2018-09-23T07:54:01.366Z,97731.70
2018-09-23T07:56:30.248Z,97728.22
2018-09-23T07:58:58.966Z,97721.26
2018-09-23T08:01:27.750Z,97715.67
2018-09-23T08:03:56.424Z,97703.91
2018-09-23T08:06:25.202Z,97705.71
2018-09-23T08:08:54.959Z,97711.93
2018-09-23T08:11:23.664Z,97700.84
2018-09-23T08:13:52.565Z,97705.94
2018-09-23T08:16:21.167Z,97692.70
2018-09-23T08:18:49.797Z,97697.41
2018-09-23T08:21:18.503Z,97701.41
2018-09-23T08:23:47.202Z,97689.99
2018-09-23T08:26:15.835Z,97687.60
2018-09-23T08:28:44.632Z,97686.05
2018-09-23T08:31:13.296Z,97680.59
2018-09-23T08:33:42.191Z,97682.47
2018-09-23T08:36:10.974Z,97683.70
2018-09-23T08:38:39.828Z,97669.73
2018-09-23T08:41:08.875Z,97675.61
2018-09-23T08:43:37.583Z,97667.51
2018-09-23T08:46:06.608Z,97660.67
2018-09-23T08:48:35.461Z,97660.11
2018-09-23T08:51:04.493Z,97661.77
2018-09-23T08:53:33.211Z,97657.73
2018-09-23T08:56:01.994Z,97653.15
2018-09-23T08:58:30.782Z,97652.05
2018-09-23T09:00:59.546Z,97641.09
2018-09-23T09:03:28.314Z,97638.09
2018-09-23T09:05:57.062Z,97637.28
2018-09-23T09:08:25.794Z,97639.22
2018-09-23T09:10:54.560Z,97630.17
2018-09-23T09:13:23.377Z,97631.30
2018-09-23T09:15:52.022Z,97627.03
2018-09-23T09:18:20.873Z,97620.48
2018-09-23T09:20:49.646Z,97618.66
2018-09-23T09:23:18.338Z,97618.19
2018-09-23T09:25:47.041Z,97606.42
2018-09-23T09:28:15.906Z,97595.71
2018-09-23T09:30:44.703Z,97601.17
2018-09-23T09:33:13.574Z,97604.89
2018-09-23T09:35:42.707Z,97596.72
2018-09-23T09:38:11.409Z,97593.22
2018-09-23T09:40:40.056Z,97598.56
2018-09-23T09:43:08.758Z,97592.78
2018-09-23T09:45:37.749Z,97578.86
2018-09-23T09:48:06.588Z,97585.01
2018-09-23T09:50:35.569Z,97586.87
2018-09-23T09:53:04.205Z,97588.88
2018-09-23T09:55:32.862Z,97572.99
2018-09-23T09:58:01.723Z,97574.83
2018-09-23T10:00:33.288Z,97571.73
2018-09-23T10:03:02.986Z,97565.45
2018-09-23T10:05:31.611Z,97568.16
2018-09-23T10:08:00.330Z,97563.63
2018-09-23T10:10:29.046Z,97556.02
2018-09-23T10:12:58.112Z,97563.41
2018-09-23T10:15:26.922Z,97565.20
2018-09-23T10:17:55.557Z,97553.14
2018-09-23T10:20:24.271Z,97552.34
2018-09-23T10:22:53.347Z,97545.73
2018-09-23T10:25:22.078Z,97542.48
2018-09-23T10:27:50.937Z,97547.15
2018-09-23T10:30:19.641Z,97535.38
2018-09-23T10:32:48.308Z,97534.42
2018-09-23T10:35:17.343Z,97536.33
2018-09-23T10:37:46.062Z,97532.64
2018-09-23T10:40:14.788Z,97522.94
2018-09-23T10:42:43.565Z,97527.66
2018-09-23T10:45:12.467Z,97515.37
2018-09-23T10:47:41.390Z,97505.67
2018-09-23T10:50:10.379Z,97503.09
2018-09-23T10:52:39.062Z,97497.27
2018-09-23T10:55:07.842Z,97492.47
2018-09-23T10:57:36.630Z,97486.25
2018-09-23T11:00:05.583Z,97481.51
2018-09-23T11:02:34.237Z,97480.22
2018-09-23T11:05:02.904Z,97484.36
2018-09-23T11:07:31.672Z,97469.19
2018-09-23T11:10:00.427Z,97471.39
2018-09-23T11:12:29.390Z,97470.69
2018-09-23T11:14:58.147Z,97468.53
2018-09-23T11:17:27.057Z,97452.36
2018-09-23T11:19:55.991Z,97455.00
2018-09-23T11:22:24.676Z,97449.74
2018-09-23T11:24:53.462Z,97442.34
2018-09-23T11:27:22.338Z,97448.92
2018-09-23T11:29:51.022Z,97455.33
2018-09-23T11:32:20.096Z,97442.66
2018-09-23T11:34:51.833Z,97431.41
2018-09-23T11:37:20.965Z,97428.05
2018-09-23T11:39:49.762Z,97421.22
2018-09-23T11:42:18.391Z,97422.79
2018-09-23T11:44:47.111Z,97413.10
2018-09-23T11:47:15.830Z,97410.91
2018-09-23T11:49:44.706Z,97408.53
2018-09-23T11:52:13.491Z,97395.20
2018-09-23T11:54:42.250Z,97398.47
2018-09-23T11:57:10.954Z,97391.27
2018-09-23T11:59:39.642Z,97382.91
2018-09-23T12:02:08.830Z,97385.02
2018-09-23T12:04:37.615Z,97374.25
2018-09-23T12:07:06.720Z,97362.47
2018-09-23T12:09:35.419Z,97362.27
2018-09-23T12:12:04.214Z,97361.42
2018-09-23T12:14:33.063Z,97350.78
2018-09-23T12:17:01.745Z,97353.59
2018-09-23T12:19:30.489Z,97336.40
2018-09-23T12:21:59.379Z,97320.50
2018-09-23T12:24:29.766Z,97314.03
2018-09-23T12:26:58.591Z,97299.35
2018-09-23T12:29:27.367Z,97299.05
2018-09-23T12:31:56.042Z,97282.40
2018-09-23T12:34:24.915Z,97276.17
2018-09-23T12:36:53.834Z,97282.17
2018-09-23T12:39:22.559Z,97262.93
2018-09-23T12:41:51.246Z,97263.83
2018-09-23T12:44:19.883Z,97233.13
2018-09-23T12:46:48.811Z,97241.92
2018-09-23T12:49:17.487Z,97238.75
2018-09-23T12:51:46.198Z,97231.57
2018-09-23T12:54:14.890Z,97230.52
2018-09-23T12:56:43.546Z,97218.63
2018-09-23T12:59:12.411Z,97196.18
2018-09-23T13:01:41.115Z,97174.31
2018-09-23T13:04:09.926Z,97174.94
2018-09-23T13:06:38.906Z,97182.82
2018-09-23T13:09:08.501Z,97160.97
2018-09-23T13:11:37.163Z,97153.05
2018-09-23T13:14:06.352Z,97140.43
2018-09-23T13:16:35.065Z,97141.39
2018-09-23T13:19:04.186Z,97140.82
2018-09-23T13:21:33.206Z,97137.71
2018-09-23T13:24:01.880Z,97132.77
2018-09-23T13:26:30.878Z,97138.30
2018-09-23T13:28:59.663Z,97115.75
2018-09-23T13:31:28.402Z,97115.94
2018-09-23T13:33:57.121Z,97100.40
2018-09-23T13:36:25.921Z,97087.98
2018-09-23T13:38:54.810Z,97074.28
2018-09-23T13:41:23.540Z,97035.83
2018-09-23T13:43:52.418Z,97013.28
2018-09-23T13:46:21.108Z,97020.47
2018-09-23T13:48:49.775Z,97001.83
2018-09-23T13:51:18.657Z,96987.26
2018-09-23T13:53:47.410Z,96984.70
2018-09-23T13:56:16.253Z,96983.43
2018-09-23T13:58:45.071Z,96963.25
2018-09-23T14:01:13.757Z,96954.31
2018-09-23T14:03:42.594Z,96965.63
2018-09-23T14:06:11.290Z,96975.72
2018-09-23T14:08:40.149Z,96964.01
2018-09-23T14:11:09.258Z,96975.17
2018-09-23T14:13:38.123Z,96960.84
2018-09-23T14:16:07.202Z,96961.61
2018-09-23T14:18:36.111Z,96953.84
2018-09-23T14:21:04.840Z,96949.58
2018-09-23T14:23:33.642Z,96935.77
2018-09-23T14:26:02.338Z,96906.06
2018-09-23T14:28:31.045Z,96898.10
2018-09-23T14:30:59.748Z,96901.80
2018-09-23T14:33:28.453Z,96888.50
2018-09-23T14:35:57.267Z,96883.50
2018-09-23T14:38:26.049Z,96877.20
2018-09-23T14:40:54.846Z,96864.16
2018-09-23T14:43:23.747Z,96838.05
2018-09-23T14:45:52.477Z,96848.47
2018-09-23T14:48:21.424Z,96864.16
2018-09-23T14:50:50.228Z,96845.16
2018-09-23T14:53:18.906Z,96851.50
2018-09-23T14:55:47.585Z,96852.97
2018-09-23T14:58:16.352Z,96861.78
2018-09-23T15:00:45.337Z,96848.66
2018-09-23T15:03:14.052Z,96817.34
2018-09-23T15:05:42.992Z,96811.72
2018-09-23T15:08:11.790Z,96816.80
2018-09-23T15:10:40.573Z,96796.87
2018-09-23T15:13:09.718Z,96782.47
2018-09-23T15:15:38.510Z,96777.05
2018-09-23T15:18:07.475Z,96764.12
2018-09-23T15:20:36.502Z,96759.41
2018-09-23T15:23:05.571Z,96753.55
2018-09-23T15:25:34.485Z,96736.38
2018-09-23T15:28:03.164Z,96727.12
2018-09-23T15:30:32.025Z,96721.83
2018-09-23T15:33:00.746Z,96718.22
2018-09-23T15:35:29.623Z,96720.46
2018-09-23T15:37:58.335Z,96722.52
2018-09-23T15:40:27.075Z,96693.08
2018-09-23T15:42:55.779Z,96664.64
2018-09-23T15:45:24.498Z,96687.67
2018-09-23T15:47:53.226Z,96687.19
2018-09-23T15:50:21.920Z,96690.87
2018-09-23T15:52:50.693Z,96679.65
2018-09-23T15:55:19.515Z,96684.80
2018-09-23T15:57:48.384Z,96690.12
2018-09-23T16:00:17.103Z,96697.70
2018-09-23T16:02:45.759Z,96690.44
2018-09-23T16:05:14.454Z,96687.25
2018-09-23T16:07:43.175Z,96685.19
2018-09-23T16:10:11.990Z,96697.25
2018-09-23T16:12:40.840Z,96698.49
2018-09-23T16:15:09.505Z,96697.52
2018-09-23T16:17:38.334Z,96709.88
2018-09-23T16:20:07.210Z,96720.45
2018-09-23T16:22:35.981Z,96743.44
2018-09-23T16:25:04.714Z,96725.46
2018-09-23T16:27:33.445Z,96771.13
2018-09-23T16:30:02.308Z,96765.61
2018-09-23T16:32:31.090Z,96831.91
2018-09-23T16:34:59.738Z,96845.67
2018-09-23T16:37:28.419Z,96898.29
2018-09-23T16:39:57.057Z,96849.78
2018-09-23T16:42:25.742Z,96903.92
2018-09-23T16:44:54.590Z,96873.39
2018-09-23T16:47:23.578Z,96890.26
2018-09-23T16:49:52.295Z,96880.73
2018-09-23T16:52:21.055Z,96918.17
2018-09-23T17:47:47.075Z,122743.50
2018-09-23T17:51:35.886Z,122743.50
2018-09-23T18:39:53.503Z,122743.50
2018-09-23T18:42:27.857Z,122743.50
2018-09-23T18:44:56.709Z,122743.50
2018-09-23T18:51:54.286Z,122743.50
2018-09-23T18:54:29.827Z,122743.50
2018-09-23T18:57:00.766Z,122743.50
2018-09-23T19:08:57.485Z,122743.50
2018-09-23T19:11:58.846Z,122743.50
2018-09-23T19:14:27.609Z,122743.50
2018-09-23T19:18:41.390Z,122743.50
2018-09-23T19:21:13.158Z,122743.50
